createdAt,value
2018-06-24T00:03:00.059Z,99.90
2018-06-24T00:08:03.520Z,99.90
2018-06-24T00:13:07.155Z,99.90
2018-06-24T00:18:11.923Z,99.90
2018-06-24T00:23:18.393Z,99.90
2018-06-24T00:28:23.898Z,99.90
2018-06-24T00:33:27.543Z,99.90
2018-06-24T00:38:35.489Z,99.90
2018-06-24T00:43:39.047Z,99.90
2018-06-24T00:48:44.683Z,99.90
2018-06-24T00:53:52.891Z,99.90
2018-06-24T00:58:58.481Z,99.90
2018-06-24T01:04:02.958Z,99.90
2018-06-24T01:09:08.251Z,99.90
2018-06-24T01:14:11.812Z,99.90
2018-06-24T01:19:15.992Z,99.90
2018-06-24T01:24:20.600Z,99.90
2018-06-24T01:34:27.550Z,99.90
2018-06-24T01:39:31.108Z,99.90
2018-06-24T01:44:34.979Z,99.90
2018-06-24T01:49:38.695Z,99.90
2018-06-24T01:59:48.307Z,99.90
2018-06-24T02:04:51.815Z,99.90
2018-06-24T02:09:55.328Z,99.90
2018-06-24T02:14:58.862Z,99.90
2018-06-24T02:20:02.483Z,99.90
2018-06-24T02:25:05.987Z,99.90
2018-06-24T02:30:09.470Z,99.90
2018-06-24T02:35:13.007Z,99.90
2018-06-24T02:40:16.521Z,99.90
2018-06-24T02:50:25.943Z,99.90
2018-06-24T02:55:29.543Z,99.90
2018-06-24T03:00:35.104Z,99.90
2018-06-24T03:05:38.803Z,99.90
2018-06-24T03:10:42.436Z,99.90
2018-06-24T03:15:46.770Z,99.90
2018-06-24T03:20:50.442Z,99.90
2018-06-24T03:25:54.194Z,99.90
2018-06-24T03:30:57.753Z,99.90
2018-06-24T03:36:01.477Z,99.90
2018-06-24T03:41:05.368Z,99.90
2018-06-24T03:46:09.033Z,99.90
2018-06-24T04:02:22.774Z,99.90
2018-06-24T04:07:27.547Z,99.90
2018-06-24T04:12:31.207Z,99.90
2018-06-24T04:17:34.794Z,99.90
2018-06-24T04:22:39.681Z,99.90
2018-06-24T04:27:47.160Z,99.90
2018-06-24T04:32:53.371Z,99.90
2018-06-24T04:37:57.156Z,99.90
2018-06-24T04:43:00.854Z,99.90
2018-06-24T04:48:04.906Z,99.90
2018-06-24T04:53:08.415Z,99.90
2018-06-24T04:58:11.888Z,99.90
2018-06-24T05:03:16.270Z,99.90
2018-06-24T05:08:19.790Z,99.90
2018-06-24T05:13:23.423Z,99.90
2018-06-24T05:23:30.548Z,99.90
2018-06-24T05:28:35.300Z,99.90
2018-06-24T05:33:38.817Z,99.90
2018-06-24T05:43:46.355Z,99.90
2018-06-24T05:48:50.038Z,99.90
2018-06-24T05:53:53.699Z,99.90
2018-06-24T05:58:57.542Z,99.90
2018-06-24T06:04:01.193Z,99.90
2018-06-24T06:09:08.220Z,99.90
2018-06-24T06:14:16.236Z,99.90
2018-06-24T06:19:20.089Z,99.90
2018-06-24T06:24:23.716Z,99.90
2018-06-24T06:29:27.484Z,99.90
2018-06-24T06:34:34.537Z,99.90
2018-06-24T06:39:38.146Z,99.90
2018-06-24T06:44:41.839Z,99.90
2018-06-24T06:54:50.332Z,99.90
2018-06-24T06:59:54.044Z,99.90
2018-06-24T07:04:57.576Z,99.90
2018-06-24T07:10:02.652Z,99.90
2018-06-24T07:15:07.358Z,99.90
2018-06-24T07:20:10.945Z,99.90
2018-06-24T07:25:15.004Z,99.90
2018-06-24T07:30:19.006Z,99.90
2018-06-24T07:35:23.070Z,99.90
2018-06-24T07:40:30.438Z,99.90
2018-06-24T07:45:35.561Z,99.90
2018-06-24T07:50:40.803Z,99.90
2018-06-24T07:55:47.114Z,99.90
2018-06-24T08:00:51.421Z,99.90
2018-06-24T08:05:55.397Z,99.90
2018-06-24T08:11:00.208Z,99.90
2018-06-24T08:16:04.745Z,99.90
2018-06-24T08:21:09.430Z,99.90
2018-06-24T08:26:13.007Z,99.90
2018-06-24T08:31:16.629Z,99.90
2018-06-24T08:36:21.520Z,99.90
2018-06-24T08:41:25.230Z,99.90
2018-06-24T08:46:29.190Z,99.90
2018-06-24T08:51:38.189Z,99.90
2018-06-24T08:56:42.983Z,99.90
2018-06-24T09:01:46.708Z,99.90
2018-06-24T09:06:52.139Z,99.90
2018-06-24T09:11:57.911Z,99.90
2018-06-24T09:17:02.287Z,99.90
2018-06-24T09:22:06.172Z,99.90
2018-06-24T09:27:09.911Z,99.90
2018-06-24T09:32:13.466Z,99.70
2018-06-24T09:42:20.464Z,99.70
2018-06-24T09:47:24.054Z,97.90
2018-06-24T09:52:27.428Z,97.40
2018-06-24T09:57:30.959Z,98.60
2018-06-24T10:02:34.686Z,97.40
2018-06-24T10:07:39.073Z,95.80
2018-06-24T10:12:42.892Z,94.40
2018-06-24T10:17:47.463Z,95.80
2018-06-24T10:22:51.004Z,96.60
2018-06-24T10:27:54.705Z,98.10
2018-06-24T10:32:58.220Z,98.60
2018-06-24T10:38:03.424Z,99.90
2018-06-24T10:43:07.128Z,99.90
2018-06-24T10:48:10.627Z,99.90
2018-06-24T10:53:14.024Z,99.90
2018-06-24T10:58:17.601Z,99.80
2018-06-24T11:03:21.711Z,99.40
2018-06-24T11:08:25.399Z,99.10
2018-06-24T11:13:28.843Z,96.60
2018-06-24T11:18:33.784Z,95.30
2018-06-24T11:23:37.241Z,94.10
2018-06-24T11:28:41.063Z,94.40
2018-06-24T11:33:45.715Z,93.90
2018-06-24T11:38:49.330Z,93.30
2018-06-24T11:43:52.808Z,93.50
2018-06-24T11:48:56.237Z,93.00
2018-06-24T11:53:59.791Z,93.50
2018-06-24T11:59:03.302Z,93.10
2018-06-24T12:04:10.995Z,92.90
2018-06-24T12:09:14.440Z,93.60
2018-06-24T12:14:17.952Z,94.10
2018-06-24T12:19:22.254Z,94.40
2018-06-24T12:24:25.931Z,92.60
2018-06-24T12:29:29.444Z,92.00
2018-06-24T12:34:36.274Z,90.90
2018-06-24T12:39:39.733Z,91.10
2018-06-24T12:44:43.213Z,91.80
2018-06-24T12:49:46.863Z,92.60
2018-06-24T12:54:50.384Z,93.10
2018-06-24T12:59:55.364Z,92.70
2018-06-24T13:05:03.815Z,92.70
2018-06-24T13:10:08.747Z,92.40
2018-06-24T13:15:13.456Z,92.00
2018-06-24T13:20:17.768Z,92.30
2018-06-24T13:25:21.239Z,90.80
2018-06-24T13:30:25.171Z,91.70
2018-06-24T13:35:32.384Z,91.20
2018-06-24T13:40:35.883Z,93.60
2018-06-24T13:45:40.299Z,92.90
2018-06-24T13:50:46.157Z,94.80
2018-06-24T13:55:51.388Z,93.40
2018-06-24T14:00:55.951Z,93.60
2018-06-24T14:06:03.634Z,91.80
2018-06-24T14:11:12.759Z,90.20
2018-06-24T14:16:16.169Z,90.50
2018-06-24T14:21:28.973Z,87.00
2018-06-24T14:26:32.785Z,86.80
2018-06-24T14:31:44.502Z,86.20
2018-06-24T14:37:02.895Z,83.90
2018-06-24T14:42:19.775Z,83.30
2018-06-24T14:52:55.430Z,84.10
2018-06-24T14:57:58.941Z,85.90
2018-06-24T15:03:06.865Z,87.60
2018-06-24T15:08:25.286Z,86.00
2018-06-24T15:13:49.632Z,87.40
2018-06-24T15:19:10.446Z,86.20
2018-06-24T15:24:23.949Z,85.70
2018-06-24T15:29:41.426Z,84.70
2018-06-24T15:34:49.528Z,89.00
2018-06-24T15:39:57.806Z,89.10
2018-06-24T15:45:02.650Z,90.00
2018-06-24T15:50:15.487Z,88.70
2018-06-24T15:55:25.076Z,87.90
2018-06-24T16:00:28.739Z,86.20
2018-06-24T16:05:32.257Z,87.60
2018-06-24T16:10:37.647Z,86.40
2018-06-24T16:15:42.368Z,88.60
2018-06-24T16:20:46.131Z,90.20
2018-06-24T16:25:51.953Z,86.90
2018-06-24T16:30:55.397Z,85.20
2018-06-24T16:36:00.237Z,86.70
2018-06-24T16:41:04.886Z,85.60
2018-06-24T16:46:08.490Z,86.00
2018-06-24T16:51:13.306Z,85.80
2018-06-24T16:56:16.843Z,86.10
2018-06-24T17:01:21.018Z,87.60
2018-06-24T17:06:24.666Z,88.70
2018-06-24T17:11:28.555Z,90.00
2018-06-24T17:16:32.167Z,89.70
2018-06-24T17:21:36.599Z,91.10
2018-06-24T17:26:39.976Z,91.00
2018-06-24T17:31:52.970Z,91.10
2018-06-24T17:42:16.427Z,91.70
2018-06-24T17:53:03.793Z,92.40
2018-06-24T17:58:20.821Z,92.80
2018-06-24T18:03:25.234Z,92.90
2018-06-24T18:09:00.993Z,92.60
2018-06-24T18:14:11.689Z,93.10
2018-06-24T18:19:22.506Z,93.40
2018-06-24T18:24:33.649Z,93.40
2018-06-24T18:29:37.944Z,93.60
2018-06-24T18:34:43.556Z,94.10
2018-06-24T18:39:47.158Z,93.70
2018-06-24T18:44:58.259Z,93.70
2018-06-24T18:50:25.638Z,94.00
2018-06-24T18:55:40.250Z,94.10
2018-06-24T19:00:46.020Z,94.80
2018-06-24T19:05:50.549Z,95.50
2018-06-24T19:10:55.584Z,95.30
2018-06-24T19:16:11.895Z,95.20
2018-06-24T19:21:15.711Z,95.30
2018-06-24T19:31:53.609Z,96.00
2018-06-24T19:42:10.014Z,96.70
2018-06-24T19:47:18.040Z,97.00
2018-06-24T19:58:02.778Z,97.30
2018-06-24T20:08:31.228Z,98.50
2018-06-24T20:13:37.354Z,98.20
2018-06-24T20:18:44.599Z,98.70
2018-06-24T20:23:58.601Z,98.90
2018-06-24T20:29:04.292Z,99.50
2018-06-24T20:34:10.402Z,99.80
2018-06-24T20:39:24.567Z,99.90
2018-06-24T20:44:41.330Z,99.90
2018-06-24T20:49:55.874Z,99.90
2018-06-24T20:55:03.081Z,99.90
2018-06-24T21:00:07.207Z,99.90
2018-06-24T21:05:10.821Z,99.90
2018-06-24T21:10:31.841Z,99.90
2018-06-24T21:15:43.036Z,99.90
2018-06-24T21:20:50.646Z,99.90
2018-06-24T21:31:13.092Z,99.90
2018-06-24T21:36:22.082Z,99.90
2018-06-24T21:41:29.186Z,99.90
2018-06-24T21:46:40.087Z,99.90
2018-06-24T21:51:50.869Z,99.90
2018-06-24T21:56:54.389Z,99.90
2018-06-24T22:02:01.100Z,99.90
2018-06-24T22:07:09.485Z,99.90
2018-06-24T22:12:15.298Z,99.90
2018-06-24T22:17:21.365Z,99.90
2018-06-24T22:22:26.494Z,99.90
2018-06-24T22:27:30.350Z,99.90
2018-06-24T22:32:39.405Z,99.90
2018-06-24T22:37:45.699Z,99.90
2018-06-24T22:42:50.590Z,99.90
2018-06-24T22:47:56.140Z,99.90
2018-06-24T22:53:05.816Z,99.90
2018-06-24T22:58:09.371Z,99.90
2018-06-24T23:03:12.992Z,99.90
2018-06-24T23:08:17.489Z,99.90
2018-06-24T23:13:21.098Z,99.90
2018-06-24T23:18:24.535Z,99.90
2018-06-24T23:23:28.100Z,99.90
2018-06-24T23:28:31.638Z,99.90
2018-06-24T23:33:35.268Z,99.90
2018-06-24T23:38:38.979Z,99.90
2018-06-24T23:43:42.389Z,99.90
2018-06-24T23:48:45.803Z,99.90
2018-06-24T23:53:53.531Z,99.90
2018-06-24T23:58:56.992Z,99.90
